Time;durP1;ratioP1;P1;durP2;ratioP2;P2;SDS_P1;SDS_P2;PMS_P1;PMS_P2;Temp;Humidity;BMP_temperature;BMP_pressure;BME280_temperature;BME280_humidity;BME280_pressure;Samples;Min_cycle;Max_cycle;Signal;HPM_P1;HPM_P2
2022/04/29 00:01:27;;;;;;;13.57;5.80;;;8.80;99.90;;;;;;12388970;28;20136;-36
2022/04/29 00:07:29;;;;;;;12.15;5.70;;;8.80;99.90;;;;;;12389748;28;20141;-36
2022/04/29 00:13:31;;;;;;;16.23;5.93;;;8.60;99.90;;;;;;12386925;28;20078;-38
2022/04/29 00:19:33;;;;;;;11.15;6.13;;;8.70;99.90;;;;;;12392648;28;20065;-37
2022/04/29 00:25:35;;;;;;;10.85;6.38;;;8.60;99.90;;;;;;12388669;28;20061;-37
2022/04/29 00:31:38;;;;;;;15.43;6.93;;;8.50;99.90;;;;;;12387870;28;20096;-38
2022/04/29 00:37:52;;;;;;;14.05;6.72;;;8.40;99.90;;;;;;12388469;28;20434;-39
2022/04/29 00:44:01;;;;;;;15.55;6.80;;;8.40;99.90;;;;;;12384650;28;20517;-36
2022/04/29 00:50:04;;;;;;;15.50;6.88;;;8.40;99.90;;;;;;12386859;28;20058;-37
2022/04/29 00:56:08;;;;;;;16.55;6.38;;;8.40;99.90;;;;;;12389091;28;20892;-38
2022/04/29 01:02:11;;;;;;;14.82;7.15;;;8.30;99.90;;;;;;12382376;28;20145;-37
2022/04/29 01:08:14;;;;;;;15.27;7.30;;;8.30;99.90;;;;;;12382287;28;20050;-36
2022/04/29 01:14:17;;;;;;;20.55;6.88;;;8.10;99.90;;;;;;12386732;28;20054;-37
2022/04/29 01:20:23;;;;;;;15.05;7.28;;;8.20;99.90;;;;;;12385061;28;20046;-38
2022/04/29 01:26:25;;;;;;;11.45;6.05;;;8.10;99.90;;;;;;12385819;28;20054;-36
2022/04/29 01:32:28;;;;;;;16.85;6.38;;;7.90;99.90;;;;;;12385525;28;20614;-38
2022/04/29 01:38:29;;;;;;;14.30;6.00;;;7.90;99.90;;;;;;12385072;28;20085;-38
2022/04/29 01:44:32;;;;;;;13.60;5.13;;;7.80;99.90;;;;;;12386987;28;20053;-38
2022/04/29 01:50:34;;;;;;;12.32;5.78;;;8.00;99.90;;;;;;12378505;28;20466;-37
2022/04/29 01:56:36;;;;;;;16.65;5.60;;;8.00;99.90;;;;;;12382868;28;20189;-38
2022/04/29 02:02:38;;;;;;;13.75;6.70;;;8.00;99.90;;;;;;12384911;28;20092;-37
2022/04/29 02:08:42;;;;;;;14.10;5.97;;;7.90;99.90;;;;;;12383071;28;20058;-37
2022/04/29 02:14:44;;;;;;;20.40;6.47;;;7.80;99.90;;;;;;12381968;28;20630;-36
2022/04/29 02:20:47;;;;;;;13.25;6.28;;;7.80;99.90;;;;;;12377061;28;20051;-37
2022/04/29 02:26:49;;;;;;;19.13;6.30;;;7.80;99.90;;;;;;12380993;28;20090;-38
2022/04/29 02:32:51;;;;;;;13.13;6.13;;;7.70;99.90;;;;;;12382273;28;20696;-37
2022/04/29 02:38:53;;;;;;;14.45;6.15;;;7.60;99.90;;;;;;12382249;28;20544;-38
2022/04/29 02:44:55;;;;;;;16.40;6.45;;;7.60;99.90;;;;;;12377515;28;20084;-37
2022/04/29 02:50:57;;;;;;;15.38;5.80;;;7.60;99.90;;;;;;12380947;28;20046;-37
2022/04/29 02:57:00;;;;;;;15.30;6.53;;;7.70;99.90;;;;;;12378563;28;20133;-38
2022/04/29 03:03:01;;;;;;;15.05;6.45;;;7.60;99.90;;;;;;12388254;28;20058;-38
2022/04/29 03:09:04;;;;;;;15.45;7.20;;;7.50;99.90;;;;;;12393309;28;20065;-38
2022/04/29 03:15:16;;;;;;;13.77;6.50;;;7.40;99.90;;;;;;12392459;28;20046;-37
2022/04/29 03:21:21;;;;;;;19.02;7.03;;;7.50;99.90;;;;;;12387734;28;20092;-36
2022/04/29 03:27:23;;;;;;;16.58;7.25;;;7.50;99.90;;;;;;12389503;28;20528;-37
2022/04/29 03:33:25;;;;;;;19.38;7.38;;;7.50;99.90;;;;;;12386177;28;20624;-38
2022/04/29 03:39:28;;;;;;;19.30;7.10;;;7.40;99.90;;;;;;12387229;28;21375;-37
2022/04/29 03:45:30;;;;;;;19.38;8.05;;;7.30;99.90;;;;;;12389066;28;20089;-37
2022/04/29 03:51:32;;;;;;;15.60;8.23;;;7.30;99.90;;;;;;12388220;28;20137;-37
2022/04/29 03:57:35;;;;;;;19.55;8.90;;;7.20;99.90;;;;;;12393043;28;20100;-38
2022/04/29 04:03:38;;;;;;;17.10;8.40;;;7.20;99.90;;;;;;12385157;28;20659;-39
2022/04/29 04:09:40;;;;;;;16.00;9.30;;;7.20;99.90;;;;;;12389814;28;20054;-39
2022/04/29 04:15:44;;;;;;;18.77;8.40;;;7.20;99.90;;;;;;12385910;28;20077;-36
2022/04/29 04:21:46;;;;;;;20.48;8.82;;;7.20;99.90;;;;;;12390026;28;20059;-38
2022/04/29 04:27:47;;;;;;;22.05;9.45;;;7.20;99.90;;;;;;12390261;28;20050;-38
2022/04/29 04:33:53;;;;;;;17.33;9.35;;;7.20;99.90;;;;;;12393204;28;20119;-36
2022/04/29 04:39:58;;;;;;;17.67;8.13;;;7.20;99.90;;;;;;12381405;28;20053;-37
2022/04/29 04:46:01;;;;;;;18.98;9.35;;;7.30;99.90;;;;;;12388641;28;20081;-38
2022/04/29 04:52:03;;;;;;;22.92;9.77;;;7.40;99.90;;;;;;12384386;28;20137;-36
2022/04/29 04:58:06;;;;;;;18.05;9.27;;;7.40;99.90;;;;;;12385416;28;20050;-38
2022/04/29 05:04:08;;;;;;;20.58;9.90;;;7.60;99.90;;;;;;12389307;28;20494;-38
2022/04/29 05:10:12;;;;;;;19.77;9.80;;;7.80;99.90;;;;;;12386816;28;20065;-37
2022/04/29 05:16:14;;;;;;;20.08;9.45;;;7.90;99.90;;;;;;12383872;28;20049;-38
2022/04/29 05:22:16;;;;;;;22.23;9.50;;;7.90;99.90;;;;;;12386314;28;20504;-37
2022/04/29 05:28:18;;;;;;;22.55;9.93;;;8.10;99.90;;;;;;12387878;28;20492;-37
2022/04/29 05:34:20;;;;;;;24.38;10.00;;;8.10;99.90;;;;;;12384143;28;20967;-38
2022/04/29 05:46:42;;;;;;;21.55;9.63;;;8.80;99.90;;;;;;12380122;28;20061;-37
2022/04/29 05:52:44;;;;;;;16.92;9.60;;;8.90;99.90;;;;;;12381779;28;20057;-37
2022/04/29 05:58:46;;;;;;;25.92;10.40;;;8.60;99.90;;;;;;12386991;28;20058;-37
2022/04/29 06:04:48;;;;;;;21.90;10.07;;;8.40;99.90;;;;;;12392107;28;20081;-38
2022/04/29 06:10:50;;;;;;;21.27;10.18;;;8.30;99.90;;;;;;12382417;28;20206;-37
2022/04/29 06:16:52;;;;;;;20.38;9.55;;;8.10;99.90;;;;;;12383686;28;20050;-39
2022/04/29 06:22:56;;;;;;;22.27;9.32;;;8.00;99.90;;;;;;12386328;28;20050;-39
2022/04/29 06:28:58;;;;;;;22.60;9.90;;;8.10;99.90;;;;;;12387180;28;20374;-37
2022/04/29 06:35:01;;;;;;;22.35;9.10;;;8.10;99.90;;;;;;12385489;28;20413;-37
2022/04/29 06:41:03;;;;;;;16.52;9.77;;;8.10;99.90;;;;;;12386250;28;20081;-38
2022/04/29 06:47:05;;;;;;;21.33;8.80;;;8.30;99.90;;;;;;12384600;28;20128;-37
2022/04/29 06:53:07;;;;;;;24.98;10.35;;;8.30;99.90;;;;;;12380117;28;20080;-36
2022/04/29 06:59:10;;;;;;;24.75;9.27;;;8.70;99.90;;;;;;12385149;28;20089;-37
2022/04/29 07:05:16;;;;;;;16.35;9.13;;;8.90;99.90;;;;;;12382102;28;20084;-37
2022/04/29 07:11:18;;;;;;;20.17;8.95;;;9.30;99.90;;;;;;12400505;28;20054;-37
2022/04/29 07:17:24;;;;;;;24.50;9.35;;;9.40;99.90;;;;;;12388029;28;20047;-37
2022/04/29 07:23:26;;;;;;;19.42;9.07;;;9.50;99.90;;;;;;12387552;28;20092;-37
2022/04/29 07:29:30;;;;;;;21.10;9.70;;;9.50;99.90;;;;;;12408751;28;20085;-38
2022/04/29 07:41:55;;;;;;;17.02;10.15;;;10.00;99.90;;;;;;12389775;28;20226;-37
2022/04/29 07:48:00;;;;;;;18.63;9.53;;;10.10;99.90;;;;;;12387958;28;20132;-39
2022/04/29 07:54:05;;;;;;;19.33;9.65;;;10.30;99.90;;;;;;12392310;28;20344;-38
2022/04/29 08:00:07;;;;;;;16.97;9.33;;;10.40;99.90;;;;;;12396874;28;20097;-38
2022/04/29 08:06:10;;;;;;;18.10;9.45;;;10.60;99.90;;;;;;12392861;28;20061;-37
2022/04/29 08:12:13;;;;;;;18.85;9.68;;;10.70;99.90;;;;;;12390103;28;20078;-38
2022/04/29 08:18:16;;;;;;;20.80;10.40;;;11.00;99.90;;;;;;12381312;28;20076;-39
2022/04/29 08:24:18;;;;;;;19.20;10.65;;;11.20;99.90;;;;;;12384739;28;20081;-37
2022/04/29 08:30:20;;;;;;;26.92;12.50;;;11.20;99.90;;;;;;12389124;28;20095;-40
2022/04/29 08:36:22;;;;;;;25.05;12.25;;;11.10;99.90;;;;;;12434446;28;20399;-37
2022/04/29 08:42:26;;;;;;;19.05;11.15;;;11.30;99.90;;;;;;12432975;28;20426;-39
2022/04/29 08:48:31;;;;;;;24.95;11.52;;;11.60;99.90;;;;;;12438174;28;20133;-39
2022/04/29 09:01:02;;;;;;;20.50;11.27;;;12.10;99.90;;;;;;12439518;28;20046;-40
2022/04/29 09:07:04;;;;;;;20.02;12.52;;;12.20;99.90;;;;;;12432066;28;20056;-37
2022/04/29 09:13:14;;;;;;;22.42;11.75;;;12.10;99.90;;;;;;12432233;28;20165;-38
2022/04/29 09:19:33;;;;;;;26.48;13.82;;;12.20;99.90;;;;;;12426489;28;20144;-37
2022/04/29 09:25:39;;;;;;;22.10;11.88;;;12.00;99.90;;;;;;12429713;28;20073;-37
2022/04/29 09:31:54;;;;;;;21.15;12.45;;;11.70;99.90;;;;;;12432890;28;20148;-38
2022/04/29 09:44:35;;;;;;;19.35;11.43;;;11.60;99.90;;;;;;12425372;28;20102;-37
2022/04/29 09:50:48;;;;;;;22.40;11.88;;;11.80;99.90;;;;;;12437660;28;20540;-39
2022/04/29 09:57:05;;;;;;;19.83;11.27;;;11.80;99.90;;;;;;12433932;28;20050;-44
2022/04/29 10:03:09;;;;;;;19.90;10.40;;;12.10;99.90;;;;;;12436887;28;20086;-37
2022/04/29 10:09:13;;;;;;;17.95;9.77;;;12.50;99.90;;;;;;12428837;28;20069;-38
2022/04/29 10:15:17;;;;;;;20.92;8.90;;;13.10;99.90;;;;;;12430142;28;20156;-37
2022/04/29 10:21:21;;;;;;;18.88;9.10;;;13.70;99.90;;;;;;12436159;28;20045;-39
2022/04/29 10:27:23;;;;;;;17.40;8.80;;;13.90;99.90;;;;;;12429984;28;20136;-39
2022/04/29 10:33:25;;;;;;;18.52;8.70;;;13.70;99.90;;;;;;12429351;28;20045;-37
2022/04/29 10:39:27;;;;;;;14.13;8.18;;;13.60;99.90;;;;;;12427997;28;20061;-37
2022/04/29 10:45:29;;;;;;;17.75;8.10;;;13.30;99.90;;;;;;12427022;28;20050;-37
2022/04/29 10:51:31;;;;;;;16.63;7.85;;;13.40;99.90;;;;;;12427459;28;20111;-38
2022/04/29 10:57:39;;;;;;;18.08;7.53;;;13.20;99.90;;;;;;12428997;28;20085;-39
2022/04/29 11:03:44;;;;;;;19.02;8.25;;;13.20;99.90;;;;;;12427209;28;20573;-38
2022/04/29 11:09:46;;;;;;;19.92;8.45;;;13.20;99.90;;;;;;12430591;28;20057;-37
2022/04/29 11:15:47;;;;;;;15.60;8.45;;;13.10;99.90;;;;;;12421365;28;20077;-37
2022/04/29 11:28:18;;;;;;;19.42;8.93;;;12.90;99.90;;;;;;12434161;28;20096;-39
2022/04/29 11:34:20;;;;;;;13.68;7.97;;;12.90;99.90;;;;;;12442222;28;20471;-39
2022/04/29 11:40:25;;;;;;;15.48;8.15;;;13.00;99.90;;;;;;12439481;28;20056;-39
2022/04/29 11:46:27;;;;;;;14.95;8.07;;;12.90;99.90;;;;;;12438960;28;20057;-39
2022/04/29 11:52:30;;;;;;;15.07;7.57;;;13.00;99.90;;;;;;12438155;28;20498;-38
2022/04/29 11:58:37;;;;;;;15.87;6.83;;;13.00;99.90;;;;;;12436842;28;20058;-39
2022/04/29 12:04:52;;;;;;;13.77;7.07;;;13.00;99.90;;;;;;12442364;28;20085;-39
2022/04/29 12:10:55;;;;;;;12.52;6.18;;;13.00;99.90;;;;;;12435256;28;20057;-39
2022/04/29 12:16:57;;;;;;;12.90;6.13;;;13.30;99.90;;;;;;12430805;28;20064;-38
2022/04/29 12:23:15;;;;;;;11.15;5.53;;;13.80;99.90;;;;;;12435669;28;20502;-37
2022/04/29 12:29:17;;;;;;;12.55;6.05;;;14.30;99.90;;;;;;12438359;28;20049;-38
2022/04/29 12:35:19;;;;;;;10.68;5.25;;;14.20;99.90;;;;;;12431855;28;20129;-37
2022/04/29 12:41:23;;;;;;;8.15;5.13;;;13.90;99.90;;;;;;12435946;28;20124;-37
2022/04/29 12:47:25;;;;;;;11.50;5.77;;;13.90;99.90;;;;;;12440126;28;20065;-39
2022/04/29 12:53:30;;;;;;;12.15;5.75;;;13.70;99.90;;;;;;12440344;28;20216;-39
2022/04/29 12:59:36;;;;;;;12.23;5.22;;;13.20;99.90;;;;;;12438641;28;20049;-37
2022/04/29 13:05:38;;;;;;;10.30;5.18;;;13.20;99.90;;;;;;12436440;28;20520;-37
2022/04/29 13:11:42;;;;;;;10.55;4.43;;;13.10;99.90;;;;;;12435492;28;20073;-37
2022/04/29 13:17:44;;;;;;;11.07;4.07;;;12.80;99.90;;;;;;12434739;28;20499;-37
2022/04/29 13:23:47;;;;;;;11.25;4.00;;;12.90;99.90;;;;;;12439078;28;20988;-37
2022/04/29 13:29:48;;;;;;;9.32;3.95;;;12.90;99.90;;;;;;12435150;28;20148;-39
2022/04/29 13:35:51;;;;;;;10.60;4.47;;;13.00;99.90;;;;;;12432288;28;20184;-37
2022/04/29 13:41:52;;;;;;;9.68;4.30;;;13.30;99.90;;;;;;12434120;28;20578;-38
2022/04/29 13:47:54;;;;;;;11.05;4.55;;;13.40;99.90;;;;;;12430625;28;20100;-39
2022/04/29 13:53:57;;;;;;;9.23;3.92;;;13.20;99.90;;;;;;12429611;28;20096;-39
2022/04/29 13:59:59;;;;;;;5.78;3.58;;;13.30;99.90;;;;;;12431902;28;20060;-37
2022/04/29 14:06:01;;;;;;;9.75;3.75;;;13.50;99.90;;;;;;12367205;28;20064;-39
2022/04/29 14:12:04;;;;;;;8.30;4.10;;;13.70;99.90;;;;;;12381960;28;20054;-39
2022/04/29 14:18:07;;;;;;;10.90;4.43;;;13.60;99.90;;;;;;12383631;28;20093;-37
2022/04/29 14:24:09;;;;;;;7.40;3.92;;;13.60;99.90;;;;;;12375505;28;20058;-40
2022/04/29 14:30:12;;;;;;;11.40;4.07;;;13.80;99.90;;;;;;12385444;28;20103;-37
2022/04/29 14:36:14;;;;;;;7.50;4.00;;;14.00;99.90;;;;;;12381805;28;20396;-37
2022/04/29 14:42:16;;;;;;;13.77;3.90;;;13.90;99.90;;;;;;12381245;28;20525;-39
2022/04/29 14:48:18;;;;;;;5.72;3.53;;;14.10;99.90;;;;;;12381823;28;20054;-38
2022/04/29 14:54:20;;;;;;;6.95;3.50;;;14.30;99.90;;;;;;12381214;28;20066;-39
2022/04/29 15:00:22;;;;;;;9.30;4.45;;;14.60;99.90;;;;;;12371706;28;20541;-39
2022/04/29 15:06:24;;;;;;;12.63;4.68;;;14.50;99.90;;;;;;12390774;28;20137;-37
2022/04/29 15:18:56;;;;;;;11.68;4.80;;;14.00;99.90;;;;;;12393637;28;20058;-39
2022/04/29 15:24:57;;;;;;;9.88;5.38;;;13.70;99.90;;;;;;12386598;28;20165;-39
2022/04/29 15:30:59;;;;;;;9.43;4.32;;;13.60;99.90;;;;;;12379290;28;20176;-37
2022/04/29 15:37:02;;;;;;;11.48;4.40;;;13.60;99.90;;;;;;12377525;28;20050;-39
2022/04/29 15:43:12;;;;;;;11.68;4.22;;;13.70;99.90;;;;;;12385197;28;20077;-37
2022/04/29 15:49:14;;;;;;;10.00;4.65;;;13.40;99.90;;;;;;12387763;28;20050;-38
2022/04/29 15:55:17;;;;;;;9.70;4.40;;;13.20;99.90;;;;;;12386602;28;20069;-39
2022/04/29 16:01:19;;;;;;;9.20;4.32;;;13.10;99.90;;;;;;12387451;28;20042;-39
2022/04/29 16:07:21;;;;;;;8.88;3.95;;;12.90;99.90;;;;;;12392011;28;20050;-38
2022/04/29 16:13:24;;;;;;;9.25;4.07;;;12.80;99.90;;;;;;12387386;28;20590;-38
2022/04/29 16:25:46;;;;;;;7.45;4.07;;;12.70;99.90;;;;;;12390483;28;20103;-37
2022/04/29 16:31:51;;;;;;;6.05;3.28;;;12.60;99.90;;;;;;12386480;28;20141;-37
2022/04/29 16:37:54;;;;;;;10.10;3.92;;;12.70;99.90;;;;;;12389440;28;20045;-39
2022/04/29 16:43:57;;;;;;;15.07;5.03;;;12.50;99.90;;;;;;12384464;28;20096;-38
2022/04/29 16:49:59;;;;;;;10.10;5.05;;;12.40;99.90;;;;;;12385559;28;20099;-37
2022/04/29 16:56:03;;;;;;;9.02;4.72;;;12.30;99.90;;;;;;12434379;28;20463;-39
2022/04/29 17:02:05;;;;;;;9.75;4.82;;;12.30;99.90;;;;;;12441948;28;20037;-39
2022/04/29 17:08:13;;;;;;;14.00;5.38;;;12.20;99.90;;;;;;12437760;28;20057;-37
2022/04/29 17:14:18;;;;;;;9.90;5.60;;;12.30;99.90;;;;;;12421111;28;20057;-37
2022/04/29 17:20:19;;;;;;;11.80;5.18;;;12.10;99.90;;;;;;12416101;28;20049;-37
2022/04/29 17:26:22;;;;;;;12.85;5.70;;;12.00;99.90;;;;;;12427596;28;20057;-38
2022/04/29 17:32:25;;;;;;;13.67;5.30;;;11.90;99.90;;;;;;12429236;28;20050;-40
2022/04/29 17:38:27;;;;;;;8.52;5.03;;;12.00;99.90;;;;;;12434052;28;20050;-38
2022/04/29 17:44:29;;;;;;;11.18;5.15;;;12.00;99.90;;;;;;12427896;28;20057;-38
2022/04/29 17:50:50;;;;;;;8.50;5.00;;;11.90;99.90;;;;;;12434710;28;20050;-38
2022/04/29 17:56:51;;;;;;;10.55;5.13;;;11.90;99.90;;;;;;12431657;28;20049;-38
2022/04/29 18:02:54;;;;;;;11.70;5.65;;;11.80;99.90;;;;;;12429928;28;20128;-37
2022/04/29 18:08:56;;;;;;;11.48;4.78;;;11.70;99.90;;;;;;12431300;28;20053;-37
2022/04/29 18:15:01;;;;;;;9.50;4.90;;;11.50;99.90;;;;;;12430886;28;20494;-38
2022/04/29 18:21:03;;;;;;;9.23;5.00;;;11.40;99.90;;;;;;12428790;28;20500;-37
2022/04/29 18:27:05;;;;;;;14.80;5.70;;;11.30;99.90;;;;;;12433965;28;20200;-39
2022/04/29 18:33:07;;;;;;;10.95;5.72;;;11.20;99.90;;;;;;12429053;28;20294;-37
2022/04/29 18:39:09;;;;;;;7.15;4.60;;;11.10;99.90;;;;;;12434446;28;20140;-39
2022/04/29 18:45:13;;;;;;;9.05;4.90;;;11.00;99.90;;;;;;12434365;28;20091;-37
2022/04/29 18:51:15;;;;;;;11.35;5.60;;;10.70;99.90;;;;;;12431243;28;20979;-37
2022/04/29 18:57:17;;;;;;;8.85;4.78;;;10.60;99.90;;;;;;12429275;28;20107;-37
2022/04/29 19:03:18;;;;;;;10.93;4.78;;;10.50;99.90;;;;;;12432714;28;20185;-37
2022/04/29 19:09:20;;;;;;;6.93;4.15;;;10.30;99.90;;;;;;12429969;28;20058;-38
2022/04/29 19:15:22;;;;;;;7.07;4.40;;;10.30;99.90;;;;;;12437166;28;20168;-37
2022/04/29 19:21:25;;;;;;;9.18;5.03;;;10.10;99.90;;;;;;12435841;28;20049;-39
2022/04/29 19:27:28;;;;;;;8.75;3.83;;;10.00;99.90;;;;;;12436126;28;20141;-38
2022/04/29 19:33:30;;;;;;;10.43;4.70;;;9.80;99.90;;;;;;12428776;28;20073;-37
2022/04/29 19:39:32;;;;;;;8.45;4.72;;;9.80;99.90;;;;;;12430973;28;20053;-38
2022/04/29 19:45:34;;;;;;;5.78;4.07;;;9.80;99.90;;;;;;12439655;28;20060;-38
2022/04/29 19:51:35;;;;;;;8.13;3.97;;;9.70;99.90;;;;;;12443348;28;20563;-38
2022/04/29 20:04:19;;;;;;;11.00;4.63;;;9.60;99.90;;;;;;12443512;28;20591;-37
2022/04/29 20:10:23;;;;;;;10.68;4.80;;;9.50;99.90;;;;;;12442921;28;20057;-37
2022/04/29 20:16:26;;;;;;;8.68;4.15;;;9.40;99.90;;;;;;12440825;28;20057;-39
2022/04/29 20:22:29;;;;;;;10.15;4.95;;;9.30;99.90;;;;;;12438473;28;20054;-37
2022/04/29 20:28:31;;;;;;;7.75;4.55;;;9.30;99.90;;;;;;12446377;28;20100;-38
2022/04/29 20:34:33;;;;;;;11.90;5.05;;;9.30;99.90;;;;;;12439130;28;20053;-37
2022/04/29 20:46:55;;;;;;;10.18;4.70;;;9.00;99.90;;;;;;12437385;28;20527;-37
2022/04/29 20:52:57;;;;;;;9.88;5.32;;;9.10;99.90;;;;;;12438083;28;20111;-37
2022/04/29 20:58:59;;;;;;;8.68;5.03;;;9.00;99.90;;;;;;12439453;28;21504;-39
2022/04/29 21:05:01;;;;;;;8.93;4.85;;;8.80;99.90;;;;;;12438717;28;20053;-37
2022/04/29 21:11:03;;;;;;;12.15;5.50;;;8.80;99.90;;;;;;12433377;28;20107;-37
2022/04/29 21:17:05;;;;;;;12.13;4.63;;;8.70;99.90;;;;;;12445993;28;20176;-38
2022/04/29 21:23:08;;;;;;;9.20;5.03;;;8.60;99.90;;;;;;12440731;28;20688;-38
2022/04/29 21:35:30;;;;;;;10.25;4.90;;;8.30;99.90;;;;;;12434566;28;20713;-37
2022/04/29 21:41:32;;;;;;;13.85;4.55;;;8.30;99.90;;;;;;12436903;28;20575;-39
2022/04/29 21:47:33;;;;;;;8.60;4.38;;;8.30;99.90;;;;;;12438283;28;20060;-39
2022/04/29 21:53:37;;;;;;;6.90;4.32;;;8.30;99.90;;;;;;12438912;28;20057;-37
2022/04/29 21:59:40;;;;;;;8.98;5.07;;;8.30;99.90;;;;;;12434008;28;20077;-38
2022/04/29 22:05:44;;;;;;;7.00;4.82;;;8.00;99.90;;;;;;12438442;28;20586;-39
2022/04/29 22:11:46;;;;;;;10.68;4.95;;;8.00;99.90;;;;;;12436148;28;20111;-37
2022/04/29 22:17:48;;;;;;;7.90;4.30;;;7.80;99.90;;;;;;12434746;28;20058;-37
2022/04/29 22:23:49;;;;;;;8.00;4.45;;;7.80;99.90;;;;;;12440266;28;20057;-39
2022/04/29 22:29:51;;;;;;;10.65;4.68;;;7.80;99.90;;;;;;12436493;28;20986;-39
2022/04/29 22:35:53;;;;;;;8.70;4.35;;;7.80;99.90;;;;;;12756728;23;20825;-37
2022/04/29 22:41:55;;;;;;;7.35;4.50;;;7.90;99.90;;;;;;12364434;28;20153;-35
2022/04/29 22:47:57;;;;;;;12.45;4.75;;;7.70;99.90;;;;;;12367876;28;20050;-37
2022/04/29 22:53:59;;;;;;;10.55;4.57;;;7.80;99.90;;;;;;12370094;28;20051;-35
2022/04/29 23:00:03;;;;;;;13.50;4.32;;;7.60;99.90;;;;;;12368632;28;20141;-37
2022/04/29 23:06:05;;;;;;;15.47;4.93;;;7.60;99.90;;;;;;12366234;28;20085;-38
2022/04/29 23:12:08;;;;;;;8.60;4.20;;;7.60;99.90;;;;;;12369301;28;20613;-37
2022/04/29 23:24:33;;;;;;;14.30;4.45;;;7.60;99.90;;;;;;12374445;28;20065;-36
2022/04/29 23:30:35;;;;;;;9.30;4.07;;;7.50;99.90;;;;;;12381323;28;20058;-38
2022/04/29 23:36:37;;;;;;;8.48;4.20;;;7.40;99.90;;;;;;12378251;28;20619;-36
2022/04/29 23:42:39;;;;;;;8.77;4.68;;;7.50;99.90;;;;;;12380244;28;20046;-37
2022/04/29 23:48:42;;;;;;;6.85;4.15;;;7.80;99.90;;;;;;12381331;28;20422;-38
2022/04/29 23:54:45;;;;;;;6.95;4.20;;;7.80;99.90;;;;;;12376936;28;20593;-36
